sensor_id;sensor_type;location;lat;lon;timestamp;temperature;humidity
51902;DHT22;37929;53.218;6.548;2023-11-22T00:00:16;6.50;99.90
51902;DHT22;37929;53.218;6.548;2023-11-22T00:02:42;6.50;99.90
51902;DHT22;37929;53.218;6.548;2023-11-22T00:05:08;6.50;99.90
51902;DHT22;37929;53.218;6.548;2023-11-22T00:07:36;6.30;99.90
51902;DHT22;37929;53.218;6.548;2023-11-22T00:10:02;7.40;99.90
51902;DHT22;37929;53.218;6.548;2023-11-22T00:12:30;6.40;99.90
51902;DHT22;37929;53.218;6.548;2023-11-22T00:15:05;6.40;99.90
51902;DHT22;37929;53.218;6.548;2023-11-22T00:17:32;6.40;99.90
51902;DHT22;37929;53.218;6.548;2023-11-22T00:19:58;6.40;99.90
51902;DHT22;37929;53.218;6.548;2023-11-22T00:22:26;6.30;99.90
51902;DHT22;37929;53.218;6.548;2023-11-22T00:24:53;6.30;99.90
51902;DHT22;37929;53.218;6.548;2023-11-22T00:27:19;6.30;99.90
51902;DHT22;37929;53.218;6.548;2023-11-22T00:29:45;6.40;99.90
51902;DHT22;37929;53.218;6.548;2023-11-22T00:32:12;6.40;99.90
51902;DHT22;37929;53.218;6.548;2023-11-22T00:34:38;6.40;99.90
51902;DHT22;37929;53.218;6.548;2023-11-22T00:37:04;6.40;99.90
51902;DHT22;37929;53.218;6.548;2023-11-22T00:39:29;6.40;99.90
51902;DHT22;37929;53.218;6.548;2023-11-22T00:41:55;7.10;99.90
51902;DHT22;37929;53.218;6.548;2023-11-22T00:44:21;6.40;99.90
51902;DHT22;37929;53.218;6.548;2023-11-22T00:46:50;6.40;99.90
51902;DHT22;37929;53.218;6.548;2023-11-22T00:49:15;7.50;99.90
51902;DHT22;37929;53.218;6.548;2023-11-22T00:51:41;6.60;99.90
51902;DHT22;37929;53.218;6.548;2023-11-22T00:54:08;6.30;99.90
51902;DHT22;37929;53.218;6.548;2023-11-22T00:56:34;6.30;99.90
51902;DHT22;37929;53.218;6.548;2023-11-22T00:59:04;6.30;99.90
51902;DHT22;37929;53.218;6.548;2023-11-22T01:01:30;6.30;99.90
51902;DHT22;37929;53.218;6.548;2023-11-22T01:03:57;6.30;99.90
51902;DHT22;37929;53.218;6.548;2023-11-22T01:06:24;7.30;99.90
51902;DHT22;37929;53.218;6.548;2023-11-22T01:08:49;6.20;99.90
51902;DHT22;37929;53.218;6.548;2023-11-22T01:11:16;6.10;99.90
51902;DHT22;37929;53.218;6.548;2023-11-22T01:13:42;6.10;99.90
51902;DHT22;37929;53.218;6.548;2023-11-22T01:16:11;6.10;99.90
51902;DHT22;37929;53.218;6.548;2023-11-22T01:18:38;6.10;99.90
51902;DHT22;37929;53.218;6.548;2023-11-22T01:21:04;4.80;99.90
51902;DHT22;37929;53.218;6.548;2023-11-22T01:23:31;6.00;99.90
51902;DHT22;37929;53.218;6.548;2023-11-22T01:26:00;7.10;99.90
51902;DHT22;37929;53.218;6.548;2023-11-22T01:28:26;6.00;99.90
51902;DHT22;37929;53.218;6.548;2023-11-22T01:30:55;6.00;99.90
51902;DHT22;37929;53.218;6.548;2023-11-22T01:33:22;6.00;99.90
51902;DHT22;37929;53.218;6.548;2023-11-22T01:35:48;5.90;99.90
51902;DHT22;37929;53.218;6.548;2023-11-22T01:38:15;7.40;99.90
51902;DHT22;37929;53.218;6.548;2023-11-22T01:40:51;6.00;99.90
51902;DHT22;37929;53.218;6.548;2023-11-22T01:43:18;6.00;99.90
51902;DHT22;37929;53.218;6.548;2023-11-22T01:45:45;6.00;99.90
51902;DHT22;37929;53.218;6.548;2023-11-22T01:48:12;6.00;99.90
51902;DHT22;37929;53.218;6.548;2023-11-22T01:50:42;7.30;99.90
51902;DHT22;37929;53.218;6.548;2023-11-22T01:53:11;6.70;99.90
51902;DHT22;37929;53.218;6.548;2023-11-22T01:55:41;5.90;99.90
51902;DHT22;37929;53.218;6.548;2023-11-22T01:58:07;5.80;99.90
51902;DHT22;37929;53.218;6.548;2023-11-22T02:00:37;5.80;99.90
51902;DHT22;37929;53.218;6.548;2023-11-22T02:03:07;6.90;99.90
51902;DHT22;37929;53.218;6.548;2023-11-22T02:05:33;5.80;99.90
51902;DHT22;37929;53.218;6.548;2023-11-22T02:07:59;6.20;99.90
51902;DHT22;37929;53.218;6.548;2023-11-22T02:10:25;5.80;99.90
51902;DHT22;37929;53.218;6.548;2023-11-22T02:12:50;5.70;99.90
51902;DHT22;37929;53.218;6.548;2023-11-22T02:15:16;5.70;99.90
51902;DHT22;37929;53.218;6.548;2023-11-22T02:17:42;5.70;99.90
51902;DHT22;37929;53.218;6.548;2023-11-22T02:20:09;7.10;99.90
51902;DHT22;37929;53.218;6.548;2023-11-22T02:22:47;5.60;99.90
51902;DHT22;37929;53.218;6.548;2023-11-22T02:25:13;5.90;99.90
51902;DHT22;37929;53.218;6.548;2023-11-22T02:27:40;5.60;99.90
51902;DHT22;37929;53.218;6.548;2023-11-22T02:30:08;6.90;99.90
51902;DHT22;37929;53.218;6.548;2023-11-22T02:32:34;5.50;99.90
51902;DHT22;37929;53.218;6.548;2023-11-22T02:35:00;5.60;99.90
51902;DHT22;37929;53.218;6.548;2023-11-22T02:37:26;6.30;99.90
51902;DHT22;37929;53.218;6.548;2023-11-22T02:42:34;5.60;99.90
51902;DHT22;37929;53.218;6.548;2023-11-22T02:45:00;5.60;99.90
51902;DHT22;37929;53.218;6.548;2023-11-22T02:47:26;5.60;99.90
51902;DHT22;37929;53.218;6.548;2023-11-22T02:49:52;5.50;99.90
51902;DHT22;37929;53.218;6.548;2023-11-22T02:52:17;6.90;99.90
51902;DHT22;37929;53.218;6.548;2023-11-22T02:54:43;5.50;99.90
51902;DHT22;37929;53.218;6.548;2023-11-22T02:57:11;5.50;99.90
51902;DHT22;37929;53.218;6.548;2023-11-22T02:59:41;5.50;99.90
51902;DHT22;37929;53.218;6.548;2023-11-22T03:02:07;5.40;99.90
51902;DHT22;37929;53.218;6.548;2023-11-22T03:04:33;5.40;99.90
51902;DHT22;37929;53.218;6.548;2023-11-22T03:07:00;5.50;99.90
51902;DHT22;37929;53.218;6.548;2023-11-22T03:09:26;5.40;99.90
51902;DHT22;37929;53.218;6.548;2023-11-22T03:11:56;5.40;99.90
51902;DHT22;37929;53.218;6.548;2023-11-22T03:14:21;5.30;99.90
51902;DHT22;37929;53.218;6.548;2023-11-22T03:16:48;5.30;99.90
51902;DHT22;37929;53.218;6.548;2023-11-22T03:19:14;6.70;99.90
51902;DHT22;37929;53.218;6.548;2023-11-22T03:21:40;5.30;99.90
51902;DHT22;37929;53.218;6.548;2023-11-22T03:24:10;5.30;99.90
51902;DHT22;37929;53.218;6.548;2023-11-22T03:26:36;5.20;99.90
51902;DHT22;37929;53.218;6.548;2023-11-22T03:29:02;5.20;99.90
51902;DHT22;37929;53.218;6.548;2023-11-22T03:31:28;5.20;99.90
51902;DHT22;37929;53.218;6.548;2023-11-22T03:33:54;5.20;99.90
51902;DHT22;37929;53.218;6.548;2023-11-22T03:36:21;5.20;99.90
51902;DHT22;37929;53.218;6.548;2023-11-22T03:38:48;6.00;99.90
51902;DHT22;37929;53.218;6.548;2023-11-22T03:41:16;5.10;99.90
51902;DHT22;37929;53.218;6.548;2023-11-22T03:43:43;5.20;99.90
51902;DHT22;37929;53.218;6.548;2023-11-22T03:46:09;5.00;99.90
51902;DHT22;37929;53.218;6.548;2023-11-22T03:48:37;5.00;99.90
51902;DHT22;37929;53.218;6.548;2023-11-22T03:51:03;5.00;99.90
51902;DHT22;37929;53.218;6.548;2023-11-22T03:53:29;5.00;99.90
51902;DHT22;37929;53.218;6.548;2023-11-22T03:55:55;5.10;99.90
51902;DHT22;37929;53.218;6.548;2023-11-22T03:58:20;5.10;99.90
51902;DHT22;37929;53.218;6.548;2023-11-22T04:00:47;5.10;99.90
51902;DHT22;37929;53.218;6.548;2023-11-22T04:03:12;5.00;99.90
51902;DHT22;37929;53.218;6.548;2023-11-22T04:05:39;5.10;99.90
51902;DHT22;37929;53.218;6.548;2023-11-22T04:08:05;5.20;99.90
51902;DHT22;37929;53.218;6.548;2023-11-22T04:10:30;5.00;99.90
51902;DHT22;37929;53.218;6.548;2023-11-22T04:12:56;5.00;99.90
51902;DHT22;37929;53.218;6.548;2023-11-22T04:15:23;5.00;99.90
51902;DHT22;37929;53.218;6.548;2023-11-22T04:17:48;4.90;99.90
51902;DHT22;37929;53.218;6.548;2023-11-22T04:20:14;4.90;99.90
51902;DHT22;37929;53.218;6.548;2023-11-22T04:22:44;6.40;99.90
51902;DHT22;37929;53.218;6.548;2023-11-22T04:25:13;5.00;99.90
51902;DHT22;37929;53.218;6.548;2023-11-22T04:27:40;6.00;99.90
51902;DHT22;37929;53.218;6.548;2023-11-22T04:30:07;4.90;99.90
51902;DHT22;37929;53.218;6.548;2023-11-22T04:32:43;5.00;99.90
51902;DHT22;37929;53.218;6.548;2023-11-22T04:35:09;5.00;99.90
51902;DHT22;37929;53.218;6.548;2023-11-22T04:37:36;6.40;99.90
51902;DHT22;37929;53.218;6.548;2023-11-22T04:40:03;4.70;99.90
51902;DHT22;37929;53.218;6.548;2023-11-22T04:42:34;4.50;99.90
51902;DHT22;37929;53.218;6.548;2023-11-22T04:45:00;4.40;99.90
51902;DHT22;37929;53.218;6.548;2023-11-22T04:47:26;5.10;99.90
51902;DHT22;37929;53.218;6.548;2023-11-22T04:49:52;4.20;99.90
51902;DHT22;37929;53.218;6.548;2023-11-22T04:52:18;4.70;99.90
51902;DHT22;37929;53.218;6.548;2023-11-22T04:54:44;4.30;99.90
51902;DHT22;37929;53.218;6.548;2023-11-22T04:57:10;4.20;99.90
51902;DHT22;37929;53.218;6.548;2023-11-22T04:59:35;4.30;99.90
51902;DHT22;37929;53.218;6.548;2023-11-22T05:02:01;4.10;99.90
51902;DHT22;37929;53.218;6.548;2023-11-22T05:04:27;4.10;99.90
51902;DHT22;37929;53.218;6.548;2023-11-22T05:06:54;4.10;99.90
51902;DHT22;37929;53.218;6.548;2023-11-22T05:09:19;4.10;99.90
51902;DHT22;37929;53.218;6.548;2023-11-22T05:11:45;4.00;99.90
51902;DHT22;37929;53.218;6.548;2023-11-22T05:14:11;4.00;99.90
51902;DHT22;37929;53.218;6.548;2023-11-22T05:16:39;4.10;99.90
51902;DHT22;37929;53.218;6.548;2023-11-22T05:19:05;4.10;99.90
51902;DHT22;37929;53.218;6.548;2023-11-22T05:21:31;4.80;99.90
51902;DHT22;37929;53.218;6.548;2023-11-22T05:23:58;5.70;99.90
51902;DHT22;37929;53.218;6.548;2023-11-22T05:26:24;5.00;99.90
51902;DHT22;37929;53.218;6.548;2023-11-22T05:28:50;4.10;99.90
51902;DHT22;37929;53.218;6.548;2023-11-22T05:31:22;4.10;99.90
51902;DHT22;37929;53.218;6.548;2023-11-22T05:33:48;4.20;99.90
51902;DHT22;37929;53.218;6.548;2023-11-22T05:36:14;4.00;99.90
51902;DHT22;37929;53.218;6.548;2023-11-22T05:38:42;3.90;99.90
51902;DHT22;37929;53.218;6.548;2023-11-22T05:41:08;3.90;99.90
51902;DHT22;37929;53.218;6.548;2023-11-22T05:43:34;3.80;99.90
51902;DHT22;37929;53.218;6.548;2023-11-22T05:46:03;3.80;99.90
51902;DHT22;37929;53.218;6.548;2023-11-22T05:48:29;5.00;99.90
51902;DHT22;37929;53.218;6.548;2023-11-22T05:50:55;4.50;99.90
51902;DHT22;37929;53.218;6.548;2023-11-22T05:53:21;3.70;99.90
51902;DHT22;37929;53.218;6.548;2023-11-22T05:55:49;3.70;99.90
51902;DHT22;37929;53.218;6.548;2023-11-22T05:58:16;3.60;99.90
51902;DHT22;37929;53.218;6.548;2023-11-22T06:00:46;3.60;99.90
51902;DHT22;37929;53.218;6.548;2023-11-22T06:03:12;3.60;99.90
51902;DHT22;37929;53.218;6.548;2023-11-22T06:05:47;3.50;99.90
51902;DHT22;37929;53.218;6.548;2023-11-22T06:08:13;3.50;99.90
51902;DHT22;37929;53.218;6.548;2023-11-22T06:10:39;3.40;99.90
51902;DHT22;37929;53.218;6.548;2023-11-22T06:13:06;3.40;99.90
51902;DHT22;37929;53.218;6.548;2023-11-22T06:15:32;3.40;99.90
51902;DHT22;37929;53.218;6.548;2023-11-22T06:17:58;3.40;99.90
51902;DHT22;37929;53.218;6.548;2023-11-22T06:20:24;3.30;99.90
51902;DHT22;37929;53.218;6.548;2023-11-22T06:23:00;3.20;99.90
51902;DHT22;37929;53.218;6.548;2023-11-22T06:25:26;4.20;99.90
51902;DHT22;37929;53.218;6.548;2023-11-22T06:27:52;3.30;99.90
51902;DHT22;37929;53.218;6.548;2023-11-22T06:30:21;4.90;99.90
51902;DHT22;37929;53.218;6.548;2023-11-22T06:32:48;3.30;99.90
51902;DHT22;37929;53.218;6.548;2023-11-22T06:35:14;3.90;99.90
51902;DHT22;37929;53.218;6.548;2023-11-22T06:37:44;3.30;99.90
51902;DHT22;37929;53.218;6.548;2023-11-22T06:40:11;3.20;99.90
51902;DHT22;37929;53.218;6.548;2023-11-22T06:42:40;3.20;99.90
51902;DHT22;37929;53.218;6.548;2023-11-22T06:45:07;3.20;99.90
51902;DHT22;37929;53.218;6.548;2023-11-22T06:47:39;3.00;99.90
51902;DHT22;37929;53.218;6.548;2023-11-22T06:50:05;3.10;99.90
51902;DHT22;37929;53.218;6.548;2023-11-22T06:52:43;2.90;99.90
51902;DHT22;37929;53.218;6.548;2023-11-22T06:55:10;3.40;99.90
51902;DHT22;37929;53.218;6.548;2023-11-22T06:57:36;2.90;99.90
51902;DHT22;37929;53.218;6.548;2023-11-22T07:00:06;3.30;99.90
51902;DHT22;37929;53.218;6.548;2023-11-22T07:02:36;2.80;99.90
51902;DHT22;37929;53.218;6.548;2023-11-22T07:05:02;4.30;99.90
51902;DHT22;37929;53.218;6.548;2023-11-22T07:07:38;2.70;99.90
51902;DHT22;37929;53.218;6.548;2023-11-22T07:10:04;1.40;99.90
51902;DHT22;37929;53.218;6.548;2023-11-22T07:12:34;2.70;99.90
51902;DHT22;37929;53.218;6.548;2023-11-22T07:15:03;2.70;99.90
51902;DHT22;37929;53.218;6.548;2023-11-22T07:17:31;2.70;99.90
51902;DHT22;37929;53.218;6.548;2023-11-22T07:20:02;2.70;99.90
51902;DHT22;37929;53.218;6.548;2023-11-22T07:22:34;2.70;99.90
51902;DHT22;37929;53.218;6.548;2023-11-22T07:25:01;2.70;99.90
51902;DHT22;37929;53.218;6.548;2023-11-22T07:27:31;2.80;99.90
51902;DHT22;37929;53.218;6.548;2023-11-22T07:29:58;2.80;99.90
51902;DHT22;37929;53.218;6.548;2023-11-22T07:32:24;2.80;99.90
51902;DHT22;37929;53.218;6.548;2023-11-22T07:34:49;2.80;99.90
51902;DHT22;37929;53.218;6.548;2023-11-22T07:37:18;2.80;99.90
51902;DHT22;37929;53.218;6.548;2023-11-22T07:39:50;4.40;99.90
51902;DHT22;37929;53.218;6.548;2023-11-22T07:42:20;2.80;99.90
51902;DHT22;37929;53.218;6.548;2023-11-22T07:44:51;2.80;99.90
51902;DHT22;37929;53.218;6.548;2023-11-22T07:47:22;3.90;99.90
51902;DHT22;37929;53.218;6.548;2023-11-22T07:49:52;4.20;99.90
51902;DHT22;37929;53.218;6.548;2023-11-22T07:52:28;2.90;99.90
51902;DHT22;37929;53.218;6.548;2023-11-22T07:55:05;3.60;99.90
51902;DHT22;37929;53.218;6.548;2023-11-22T07:57:44;3.00;99.90
51902;DHT22;37929;53.218;6.548;2023-11-22T08:00:11;3.00;99.90
51902;DHT22;37929;53.218;6.548;2023-11-22T08:02:38;3.00;99.90
51902;DHT22;37929;53.218;6.548;2023-11-22T08:05:05;3.00;99.90
51902;DHT22;37929;53.218;6.548;2023-11-22T08:07:37;3.00;99.90
51902;DHT22;37929;53.218;6.548;2023-11-22T08:10:07;3.30;99.90
51902;DHT22;37929;53.218;6.548;2023-11-22T08:12:45;3.00;99.90
51902;DHT22;37929;53.218;6.548;2023-11-22T08:15:11;3.00;99.90
51902;DHT22;37929;53.218;6.548;2023-11-22T08:17:40;3.00;99.90
51902;DHT22;37929;53.218;6.548;2023-11-22T08:20:07;2.90;99.90
51902;DHT22;37929;53.218;6.548;2023-11-22T08:22:44;2.90;99.90
51902;DHT22;37929;53.218;6.548;2023-11-22T08:25:17;2.80;99.90
51902;DHT22;37929;53.218;6.548;2023-11-22T08:27:43;2.90;99.90
51902;DHT22;37929;53.218;6.548;2023-11-22T08:30:09;2.80;99.90
51902;DHT22;37929;53.218;6.548;2023-11-22T08:32:40;2.80;99.90
51902;DHT22;37929;53.218;6.548;2023-11-22T08:35:07;2.80;99.90
51902;DHT22;37929;53.218;6.548;2023-11-22T08:37:34;2.80;99.90
51902;DHT22;37929;53.218;6.548;2023-11-22T08:40:02;2.80;99.90
51902;DHT22;37929;53.218;6.548;2023-11-22T08:42:28;2.80;99.90
51902;DHT22;37929;53.218;6.548;2023-11-22T08:44:53;2.90;99.90
51902;DHT22;37929;53.218;6.548;2023-11-22T08:47:19;2.90;99.90
51902;DHT22;37929;53.218;6.548;2023-11-22T08:49:45;3.80;99.90
51902;DHT22;37929;53.218;6.548;2023-11-22T08:52:13;2.90;99.90
51902;DHT22;37929;53.218;6.548;2023-11-22T08:54:39;2.90;99.90
51902;DHT22;37929;53.218;6.548;2023-11-22T08:57:05;2.90;99.90
51902;DHT22;37929;53.218;6.548;2023-11-22T08:59:31;2.90;99.90
51902;DHT22;37929;53.218;6.548;2023-11-22T09:02:04;2.90;99.90
51902;DHT22;37929;53.218;6.548;2023-11-22T09:04:30;2.90;99.90
51902;DHT22;37929;53.218;6.548;2023-11-22T09:06:57;3.20;99.90
51902;DHT22;37929;53.218;6.548;2023-11-22T09:09:23;3.00;99.90
51902;DHT22;37929;53.218;6.548;2023-11-22T09:11:59;3.00;99.90
51902;DHT22;37929;53.218;6.548;2023-11-22T09:14:25;3.10;99.90
51902;DHT22;37929;53.218;6.548;2023-11-22T09:16:51;3.90;99.90
51902;DHT22;37929;53.218;6.548;2023-11-22T09:19:24;3.10;99.90
51902;DHT22;37929;53.218;6.548;2023-11-22T09:21:50;3.70;99.90
51902;DHT22;37929;53.218;6.548;2023-11-22T09:24:17;3.10;99.90
51902;DHT22;37929;53.218;6.548;2023-11-22T09:26:43;4.50;99.90
51902;DHT22;37929;53.218;6.548;2023-11-22T09:29:10;3.10;99.90
51902;DHT22;37929;53.218;6.548;2023-11-22T09:31:39;3.20;99.90
51902;DHT22;37929;53.218;6.548;2023-11-22T09:34:05;3.20;99.90
51902;DHT22;37929;53.218;6.548;2023-11-22T09:36:31;3.20;99.90
51902;DHT22;37929;53.218;6.548;2023-11-22T09:38:59;3.20;99.90
51902;DHT22;37929;53.218;6.548;2023-11-22T09:41:25;4.70;99.90
51902;DHT22;37929;53.218;6.548;2023-11-22T09:43:55;3.30;99.90
51902;DHT22;37929;53.218;6.548;2023-11-22T09:46:22;3.30;99.90
51902;DHT22;37929;53.218;6.548;2023-11-22T09:48:49;3.30;99.90
51902;DHT22;37929;53.218;6.548;2023-11-22T09:51:24;3.50;99.90
51902;DHT22;37929;53.218;6.548;2023-11-22T09:53:56;3.50;99.90
51902;DHT22;37929;53.218;6.548;2023-11-22T09:56:24;3.50;99.90
51902;DHT22;37929;53.218;6.548;2023-11-22T09:58:52;3.90;99.90
51902;DHT22;37929;53.218;6.548;2023-11-22T10:01:21;3.50;99.90
51902;DHT22;37929;53.218;6.548;2023-11-22T10:03:48;5.00;99.90
51902;DHT22;37929;53.218;6.548;2023-11-22T10:06:14;3.50;99.90
51902;DHT22;37929;53.218;6.548;2023-11-22T10:08:41;3.50;99.90
51902;DHT22;37929;53.218;6.548;2023-11-22T10:11:07;3.60;99.90
51902;DHT22;37929;53.218;6.548;2023-11-22T10:13:35;4.40;99.90
51902;DHT22;37929;53.218;6.548;2023-11-22T10:16:14;3.60;99.90
51902;DHT22;37929;53.218;6.548;2023-11-22T10:18:45;3.70;99.90
51902;DHT22;37929;53.218;6.548;2023-11-22T10:21:22;3.70;99.90
51902;DHT22;37929;53.218;6.548;2023-11-22T10:23:51;3.70;99.90
51902;DHT22;37929;53.218;6.548;2023-11-22T10:26:19;3.70;99.90
51902;DHT22;37929;53.218;6.548;2023-11-22T10:28:45;3.80;99.90
51902;DHT22;37929;53.218;6.548;2023-11-22T10:31:11;3.90;99.90
51902;DHT22;37929;53.218;6.548;2023-11-22T10:33:43;3.90;99.90
51902;DHT22;37929;53.218;6.548;2023-11-22T10:36:11;3.90;99.90
51902;DHT22;37929;53.218;6.548;2023-11-22T10:38:38;4.00;99.90
51902;DHT22;37929;53.218;6.548;2023-11-22T10:41:17;5.10;99.90
51902;DHT22;37929;53.218;6.548;2023-11-22T10:44:20;4.10;99.90
51902;DHT22;37929;53.218;6.548;2023-11-22T10:46:48;4.90;99.90
51902;DHT22;37929;53.218;6.548;2023-11-22T10:49:14;4.70;99.90
51902;DHT22;37929;53.218;6.548;2023-11-22T10:51:44;4.50;99.90
51902;DHT22;37929;53.218;6.548;2023-11-22T10:54:14;4.30;99.90
51902;DHT22;37929;53.218;6.548;2023-11-22T10:56:40;4.30;99.90
51902;DHT22;37929;53.218;6.548;2023-11-22T10:59:13;4.30;99.90
51902;DHT22;37929;53.218;6.548;2023-11-22T11:01:44;4.30;99.90
51902;DHT22;37929;53.218;6.548;2023-11-22T11:04:33;4.40;99.90
51902;DHT22;37929;53.218;6.548;2023-11-22T11:07:21;4.50;99.90
51902;DHT22;37929;53.218;6.548;2023-11-22T11:10:03;4.70;99.90
51902;DHT22;37929;53.218;6.548;2023-11-22T11:12:29;4.90;99.90
51902;DHT22;37929;53.218;6.548;2023-11-22T11:14:54;4.90;99.90
51902;DHT22;37929;53.218;6.548;2023-11-22T11:17:21;5.00;99.90
51902;DHT22;37929;53.218;6.548;2023-11-22T11:19:49;5.00;99.90
51902;DHT22;37929;53.218;6.548;2023-11-22T11:22:27;5.00;99.90
51902;DHT22;37929;53.218;6.548;2023-11-22T11:25:01;5.20;99.90
51902;DHT22;37929;53.218;6.548;2023-11-22T11:27:28;5.10;99.90
51902;DHT22;37929;53.218;6.548;2023-11-22T11:29:55;5.10;99.90
51902;DHT22;37929;53.218;6.548;2023-11-22T11:32:31;5.20;99.90
51902;DHT22;37929;53.218;6.548;2023-11-22T11:35:05;6.50;99.90
51902;DHT22;37929;53.218;6.548;2023-11-22T11:37:34;5.20;99.90
51902;DHT22;37929;53.218;6.548;2023-11-22T11:40:00;5.20;99.90
51902;DHT22;37929;53.218;6.548;2023-11-22T11:42:27;5.20;99.90
51902;DHT22;37929;53.218;6.548;2023-11-22T11:47:25;5.30;99.90
51902;DHT22;37929;53.218;6.548;2023-11-22T11:49:51;5.20;99.90
51902;DHT22;37929;53.218;6.548;2023-11-22T11:52:17;5.20;99.90
51902;DHT22;37929;53.218;6.548;2023-11-22T11:54:43;5.30;99.90
51902;DHT22;37929;53.218;6.548;2023-11-22T11:57:10;5.50;99.90
51902;DHT22;37929;53.218;6.548;2023-11-22T11:59:36;5.30;99.90
51902;DHT22;37929;53.218;6.548;2023-11-22T12:02:02;3.70;99.90
51902;DHT22;37929;53.218;6.548;2023-11-22T12:04:31;5.30;99.90
51902;DHT22;37929;53.218;6.548;2023-11-22T12:06:58;5.30;99.90
51902;DHT22;37929;53.218;6.548;2023-11-22T12:09:29;5.30;99.90
51902;DHT22;37929;53.218;6.548;2023-11-22T12:11:55;5.20;99.90
51902;DHT22;37929;53.218;6.548;2023-11-22T12:14:23;5.20;99.90
51902;DHT22;37929;53.218;6.548;2023-11-22T12:16:52;6.00;99.90
51902;DHT22;37929;53.218;6.548;2023-11-22T12:19:29;6.50;99.90
51902;DHT22;37929;53.218;6.548;2023-11-22T12:21:58;5.30;99.90
51902;DHT22;37929;53.218;6.548;2023-11-22T12:24:25;5.30;99.90
51902;DHT22;37929;53.218;6.548;2023-11-22T12:26:50;5.30;99.90
51902;DHT22;37929;53.218;6.548;2023-11-22T12:29:17;5.20;99.90
51902;DHT22;37929;53.218;6.548;2023-11-22T12:31:48;5.40;99.90
51902;DHT22;37929;53.218;6.548;2023-11-22T12:34:19;5.10;99.90
51902;DHT22;37929;53.218;6.548;2023-11-22T12:36:46;5.20;99.90
51902;DHT22;37929;53.218;6.548;2023-11-22T12:39:15;5.10;99.90
51902;DHT22;37929;53.218;6.548;2023-11-22T12:41:49;6.40;99.90
51902;DHT22;37929;53.218;6.548;2023-11-22T12:44:17;5.10;99.90
51902;DHT22;37929;53.218;6.548;2023-11-22T12:46:47;5.20;99.90
51902;DHT22;37929;53.218;6.548;2023-11-22T12:49:26;5.20;99.90
51902;DHT22;37929;53.218;6.548;2023-11-22T12:51:54;5.20;99.90
51902;DHT22;37929;53.218;6.548;2023-11-22T12:54:20;5.20;99.90
51902;DHT22;37929;53.218;6.548;2023-11-22T12:56:53;5.20;99.90
51902;DHT22;37929;53.218;6.548;2023-11-22T12:59:25;5.20;99.90
51902;DHT22;37929;53.218;6.548;2023-11-22T13:01:55;5.20;99.90
51902;DHT22;37929;53.218;6.548;2023-11-22T13:04:23;5.20;99.90
51902;DHT22;37929;53.218;6.548;2023-11-22T13:06:49;5.20;99.90
51902;DHT22;37929;53.218;6.548;2023-11-22T13:09:14;5.20;99.90
51902;DHT22;37929;53.218;6.548;2023-11-22T13:11:43;5.10;99.90
51902;DHT22;37929;53.218;6.548;2023-11-22T13:14:09;5.20;99.90
51902;DHT22;37929;53.218;6.548;2023-11-22T13:16:37;5.20;99.90
51902;DHT22;37929;53.218;6.548;2023-11-22T13:19:04;6.70;99.90
51902;DHT22;37929;53.218;6.548;2023-11-22T13:21:30;5.20;99.90
51902;DHT22;37929;53.218;6.548;2023-11-22T13:23:57;5.30;99.90
51902;DHT22;37929;53.218;6.548;2023-11-22T13:26:25;5.20;99.90
51902;DHT22;37929;53.218;6.548;2023-11-22T13:28:51;5.20;99.90
51902;DHT22;37929;53.218;6.548;2023-11-22T13:31:20;5.10;99.90
51902;DHT22;37929;53.218;6.548;2023-11-22T13:33:47;5.10;99.90
51902;DHT22;37929;53.218;6.548;2023-11-22T13:36:13;5.10;99.90
51902;DHT22;37929;53.218;6.548;2023-11-22T13:38:40;5.00;99.90
51902;DHT22;37929;53.218;6.548;2023-11-22T13:41:06;5.10;99.90
51902;DHT22;37929;53.218;6.548;2023-11-22T13:43:32;5.00;99.90
51902;DHT22;37929;53.218;6.548;2023-11-22T13:46:00;6.70;99.90
51902;DHT22;37929;53.218;6.548;2023-11-22T13:48:26;5.00;99.90
51902;DHT22;37929;53.218;6.548;2023-11-22T13:50:52;4.90;99.90
51902;DHT22;37929;53.218;6.548;2023-11-22T13:53:18;5.00;99.90
51902;DHT22;37929;53.218;6.548;2023-11-22T13:55:48;4.90;99.90
51902;DHT22;37929;53.218;6.548;2023-11-22T13:58:16;5.00;99.90
51902;DHT22;37929;53.218;6.548;2023-11-22T14:00:42;4.80;99.90
51902;DHT22;37929;53.218;6.548;2023-11-22T14:03:09;4.90;99.90
51902;DHT22;37929;53.218;6.548;2023-11-22T14:05:37;4.80;99.90
51902;DHT22;37929;53.218;6.548;2023-11-22T14:08:06;5.70;99.90
51902;DHT22;37929;53.218;6.548;2023-11-22T14:10:33;4.80;99.90
51902;DHT22;37929;53.218;6.548;2023-11-22T14:12:59;6.20;99.90
51902;DHT22;37929;53.218;6.548;2023-11-22T14:15:26;4.80;99.90
51902;DHT22;37929;53.218;6.548;2023-11-22T14:17:54;4.80;99.90
51902;DHT22;37929;53.218;6.548;2023-11-22T14:20:20;4.80;99.90
51902;DHT22;37929;53.218;6.548;2023-11-22T14:22:47;4.80;99.90
51902;DHT22;37929;53.218;6.548;2023-11-22T14:25:14;4.70;99.90
51902;DHT22;37929;53.218;6.548;2023-11-22T14:27:46;6.30;99.90
51902;DHT22;37929;53.218;6.548;2023-11-22T14:30:14;4.70;99.90
51902;DHT22;37929;53.218;6.548;2023-11-22T14:32:43;4.70;99.90
51902;DHT22;37929;53.218;6.548;2023-11-22T14:35:09;4.70;99.90
51902;DHT22;37929;53.218;6.548;2023-11-22T14:37:36;4.70;99.90
51902;DHT22;37929;53.218;6.548;2023-11-22T14:40:06;4.70;99.90
51902;DHT22;37929;53.218;6.548;2023-11-22T14:42:40;4.70;99.90
51902;DHT22;37929;53.218;6.548;2023-11-22T14:45:08;4.70;99.90
51902;DHT22;37929;53.218;6.548;2023-11-22T14:47:35;4.70;99.90
51902;DHT22;37929;53.218;6.548;2023-11-22T14:50:02;4.80;99.90
51902;DHT22;37929;53.218;6.548;2023-11-22T14:52:31;4.70;99.90
51902;DHT22;37929;53.218;6.548;2023-11-22T14:54:57;5.90;99.90
51902;DHT22;37929;53.218;6.548;2023-11-22T14:57:26;5.20;99.90
51902;DHT22;37929;53.218;6.548;2023-11-22T14:59:52;4.70;99.90
51902;DHT22;37929;53.218;6.548;2023-11-22T15:02:17;5.40;99.90
51902;DHT22;37929;53.218;6.548;2023-11-22T15:04:44;4.70;99.90
51902;DHT22;37929;53.218;6.548;2023-11-22T15:07:11;4.70;99.90
51902;DHT22;37929;53.218;6.548;2023-11-22T15:09:37;4.70;99.90
51902;DHT22;37929;53.218;6.548;2023-11-22T15:12:04;4.70;99.90
51902;DHT22;37929;53.218;6.548;2023-11-22T15:14:30;4.70;99.90
51902;DHT22;37929;53.218;6.548;2023-11-22T15:16:56;4.70;99.90
51902;DHT22;37929;53.218;6.548;2023-11-22T15:19:22;4.80;99.90
51902;DHT22;37929;53.218;6.548;2023-11-22T15:21:52;4.80;99.90
51902;DHT22;37929;53.218;6.548;2023-11-22T15:24:19;5.50;99.90
51902;DHT22;37929;53.218;6.548;2023-11-22T15:26:45;4.80;99.90
51902;DHT22;37929;53.218;6.548;2023-11-22T15:29:11;5.10;99.90
51902;DHT22;37929;53.218;6.548;2023-11-22T15:31:37;4.80;99.90
51902;DHT22;37929;53.218;6.548;2023-11-22T15:34:04;4.90;99.90
51902;DHT22;37929;53.218;6.548;2023-11-22T15:36:30;5.60;99.90
51902;DHT22;37929;53.218;6.548;2023-11-22T15:38:56;4.90;99.90
51902;DHT22;37929;53.218;6.548;2023-11-22T15:41:22;5.00;99.90
51902;DHT22;37929;53.218;6.548;2023-11-22T15:43:48;4.90;99.90
51902;DHT22;37929;53.218;6.548;2023-11-22T15:46:14;6.10;99.90
51902;DHT22;37929;53.218;6.548;2023-11-22T15:48:42;4.90;99.90
51902;DHT22;37929;53.218;6.548;2023-11-22T15:51:09;6.20;99.90
51902;DHT22;37929;53.218;6.548;2023-11-22T15:53:37;4.90;99.90